createdAt,value
2018-11-13T00:00:28.643Z,11.90
2018-11-13T00:02:56.490Z,11.90
2018-11-13T00:05:24.303Z,11.90
2018-11-13T00:07:51.705Z,11.80
2018-11-13T00:10:19.152Z,11.90
2018-11-13T00:12:47.118Z,11.90
2018-11-13T00:15:14.457Z,11.90
2018-11-13T00:17:41.954Z,11.90
2018-11-13T00:20:10.740Z,11.90
2018-11-13T00:22:38.095Z,11.90
2018-11-13T00:25:05.979Z,11.80
2018-11-13T00:27:33.440Z,11.80
2018-11-13T00:30:00.871Z,11.80
2018-11-13T00:32:28.527Z,11.80
2018-11-13T00:34:55.959Z,11.80
2018-11-13T00:37:23.435Z,11.80
2018-11-13T00:39:50.814Z,11.70
2018-11-13T00:42:18.218Z,11.70
2018-11-13T00:44:45.611Z,11.80
2018-11-13T00:47:13.067Z,11.80
2018-11-13T00:49:40.519Z,11.80
2018-11-13T00:52:08.027Z,11.80
2018-11-13T00:54:35.426Z,11.80
2018-11-13T00:57:02.864Z,11.80
2018-11-13T00:59:30.608Z,11.80
2018-11-13T01:01:57.733Z,11.80
2018-11-13T01:04:25.174Z,11.80
2018-11-13T01:06:52.554Z,11.80
2018-11-13T01:09:19.910Z,11.80
2018-11-13T01:11:47.383Z,11.80
2018-11-13T01:14:14.801Z,11.80
2018-11-13T01:16:42.223Z,11.90
2018-11-13T01:19:09.586Z,11.90
2018-11-13T01:21:37.040Z,11.80
2018-11-13T01:24:04.753Z,11.70
2018-11-13T01:26:32.086Z,11.70
2018-11-13T01:28:59.527Z,11.70
2018-11-13T01:31:26.872Z,11.60
2018-11-13T01:33:54.235Z,11.60
2018-11-13T01:36:21.711Z,11.60
2018-11-13T01:38:49.146Z,11.50
2018-11-13T01:41:16.591Z,11.50
2018-11-13T01:43:43.963Z,11.50
2018-11-13T01:46:11.406Z,11.50
2018-11-13T01:48:38.770Z,11.50
2018-11-13T01:51:06.219Z,11.50
2018-11-13T01:53:33.583Z,11.40
2018-11-13T01:56:00.936Z,11.40
2018-11-13T01:58:28.389Z,11.30
2018-11-13T02:00:55.746Z,11.30
2018-11-13T02:03:23.218Z,11.40
2018-11-13T02:05:50.685Z,11.40
2018-11-13T02:08:18.149Z,11.40
2018-11-13T02:10:45.619Z,11.40
2018-11-13T02:13:13.060Z,11.40
2018-11-13T02:15:40.523Z,11.40
2018-11-13T02:18:07.885Z,11.40
2018-11-13T02:20:35.340Z,11.40
2018-11-13T02:23:02.768Z,11.40
2018-11-13T02:25:30.140Z,11.50
2018-11-13T02:27:57.593Z,11.40
2018-11-13T02:30:25.081Z,11.50
2018-11-13T02:32:52.527Z,11.50
2018-11-13T02:35:20.058Z,11.50
2018-11-13T02:37:47.479Z,11.60
2018-11-13T02:40:15.024Z,11.60
2018-11-13T02:42:43.089Z,11.50
2018-11-13T02:45:12.377Z,11.50
2018-11-13T02:47:41.792Z,11.50
2018-11-13T02:50:11.185Z,11.60
2018-11-13T02:52:38.996Z,11.60
2018-11-13T02:55:06.878Z,11.60
2018-11-13T02:57:34.389Z,11.60
2018-11-13T03:00:01.957Z,11.60
2018-11-13T03:02:29.512Z,11.50
2018-11-13T03:04:57.011Z,11.50
2018-11-13T03:07:24.388Z,11.50
2018-11-13T03:09:51.864Z,11.50
2018-11-13T03:12:19.320Z,11.60
2018-11-13T03:14:47.752Z,11.60
2018-11-13T03:17:15.137Z,11.60
2018-11-13T03:19:42.512Z,11.60
2018-11-13T03:22:09.876Z,11.60
2018-11-13T03:24:37.332Z,11.60
2018-11-13T03:27:04.766Z,11.70
2018-11-13T03:29:32.240Z,11.70
2018-11-13T03:31:59.698Z,11.70
2018-11-13T03:34:27.165Z,11.70
2018-11-13T03:36:54.512Z,11.70
2018-11-13T03:39:21.856Z,11.70
2018-11-13T03:41:49.322Z,11.70
2018-11-13T03:44:16.758Z,11.70
2018-11-13T03:46:44.314Z,11.70
2018-11-13T03:49:11.694Z,11.70
2018-11-13T03:51:39.150Z,11.70
2018-11-13T03:54:06.626Z,11.70
2018-11-13T03:56:34.135Z,11.60
2018-11-13T03:59:01.519Z,11.60
2018-11-13T04:01:28.971Z,11.60
2018-11-13T04:03:56.493Z,11.60
2018-11-13T04:06:23.912Z,11.60
2018-11-13T04:08:51.336Z,11.60
2018-11-13T04:11:18.807Z,11.60
2018-11-13T04:13:46.240Z,11.60
2018-11-13T04:16:13.608Z,11.50
2018-11-13T04:18:41.089Z,11.50
2018-11-13T04:21:08.527Z,11.50
2018-11-13T04:23:36.691Z,11.50
2018-11-13T04:26:04.080Z,11.40
2018-11-13T04:28:31.510Z,11.50
2018-11-13T04:30:58.981Z,11.40
2018-11-13T04:33:26.455Z,11.40
2018-11-13T04:35:53.892Z,11.40
2018-11-13T04:38:21.340Z,11.40
2018-11-13T04:40:48.819Z,11.40
2018-11-13T04:43:16.257Z,11.40
2018-11-13T04:45:43.718Z,11.40
2018-11-13T04:48:11.172Z,11.40
2018-11-13T04:50:38.696Z,11.40
2018-11-13T04:53:06.082Z,11.40
2018-11-13T04:55:33.450Z,11.40
2018-11-13T04:58:00.807Z,11.40
2018-11-13T05:00:28.181Z,11.40
2018-11-13T05:02:55.579Z,11.40
2018-11-13T05:05:23.040Z,11.30
2018-11-13T05:07:51.595Z,11.30
2018-11-13T05:10:19.043Z,11.30
2018-11-13T05:12:47.149Z,11.30
2018-11-13T05:15:14.674Z,11.30
2018-11-13T05:17:42.855Z,11.30
2018-11-13T05:20:11.322Z,11.30
2018-11-13T05:22:38.770Z,11.30
2018-11-13T05:25:06.963Z,11.30
2018-11-13T05:27:34.460Z,11.30
2018-11-13T05:30:02.516Z,11.30
2018-11-13T05:32:29.927Z,11.30
2018-11-13T05:34:57.391Z,11.30
2018-11-13T05:37:24.848Z,11.30
2018-11-13T05:39:52.287Z,11.30
2018-11-13T05:42:19.663Z,11.30
2018-11-13T05:44:47.047Z,11.30
2018-11-13T05:47:14.572Z,11.30
2018-11-13T05:49:41.926Z,11.30
2018-11-13T05:52:09.291Z,11.30
2018-11-13T05:54:36.647Z,11.30
2018-11-13T05:57:04.008Z,11.20
2018-11-13T05:59:31.460Z,11.20
2018-11-13T06:01:58.908Z,11.20
2018-11-13T06:04:26.267Z,11.20
2018-11-13T06:17:43.844Z,11.10
2018-11-13T06:26:07.320Z,11.20
2018-11-13T06:34:06.864Z,11.20
2018-11-13T06:53:58.119Z,11.20
2018-11-13T06:56:25.477Z,11.20
2018-11-13T06:58:52.884Z,11.20
2018-11-13T07:01:20.890Z,11.20
2018-11-13T07:27:03.107Z,11.30
2018-11-13T07:59:34.236Z,11.50
2018-11-13T08:05:12.887Z,11.40
2018-11-13T08:10:28.451Z,11.50
2018-11-13T08:15:54.883Z,11.50
2018-11-13T09:00:38.510Z,11.70
2018-11-13T09:08:08.947Z,11.70
2018-11-13T09:13:22.436Z,11.90
2018-11-13T09:15:51.542Z,11.90
2018-11-13T09:18:19.007Z,11.90
2018-11-13T09:42:52.857Z,11.70
2018-11-13T09:59:12.302Z,12.00
2018-11-13T10:23:40.629Z,12.10
2018-11-13T10:26:08.179Z,12.10
2018-11-13T10:28:35.543Z,12.10
2018-11-13T10:31:03.424Z,12.10
2018-11-13T10:33:31.403Z,12.10
2018-11-13T10:35:59.014Z,12.20
2018-11-13T10:38:26.844Z,12.20
2018-11-13T10:40:54.366Z,12.20
2018-11-13T10:47:39.431Z,12.20
2018-11-13T12:06:05.489Z,12.50
2018-11-13T12:14:37.501Z,12.50
2018-11-13T12:17:44.359Z,12.50
2018-11-13T12:20:16.016Z,12.50
2018-11-13T12:22:45.624Z,12.50
2018-11-13T13:10:34.978Z,13.50
2018-11-13T13:13:03.571Z,13.40
2018-11-13T13:15:30.938Z,13.40
2018-11-13T13:21:41.599Z,13.40
2018-11-13T13:24:10.127Z,13.50
2018-11-13T13:26:38.039Z,13.60
2018-11-13T13:31:37.941Z,13.60
2018-11-13T13:34:08.707Z,13.60
2018-11-13T13:42:09.084Z,13.20
2018-11-13T14:15:05.930Z,13.00
2018-11-13T14:23:14.116Z,13.00
2018-11-13T14:26:02.617Z,13.00
2018-11-13T14:37:56.287Z,13.20
2018-11-13T14:40:28.310Z,13.10
2018-11-13T14:42:57.113Z,13.00
2018-11-13T14:45:27.390Z,12.80
2018-11-13T14:47:55.270Z,12.70
2018-11-13T14:50:24.170Z,12.50
2018-11-13T15:08:21.241Z,12.30
2018-11-13T15:16:20.817Z,12.10
2018-11-13T15:18:48.494Z,12.10
2018-11-13T15:21:33.120Z,12.10
2018-11-13T15:27:05.906Z,12.00
2018-11-13T15:29:33.473Z,12.00
2018-11-13T15:32:00.898Z,12.00
2018-11-13T15:37:14.960Z,12.20
2018-11-13T15:42:28.884Z,12.10
2018-11-13T15:44:56.471Z,12.10
2018-11-13T15:47:23.916Z,12.10
2018-11-13T15:49:51.413Z,12.00
2018-11-13T15:52:19.013Z,12.00
2018-11-13T15:54:58.822Z,11.90
2018-11-13T15:57:26.534Z,11.90
2018-11-13T16:02:41.369Z,11.70
2018-11-13T16:05:14.383Z,11.50
2018-11-13T16:07:41.742Z,11.50
2018-11-13T16:10:09.341Z,11.40
2018-11-13T16:12:36.760Z,11.40
2018-11-13T16:15:04.823Z,11.30
2018-11-13T16:26:21.694Z,11.30
2018-11-13T16:28:49.176Z,11.20
2018-11-13T16:33:55.834Z,11.20
2018-11-13T16:36:29.554Z,11.10
2018-11-13T16:41:47.409Z,11.10
2018-11-13T16:44:23.131Z,11.10
2018-11-13T16:47:07.168Z,11.10
2018-11-13T16:49:35.189Z,11.10
2018-11-13T16:52:03.019Z,11.10
2018-11-13T16:54:36.194Z,11.10
2018-11-13T16:57:03.643Z,11.10
2018-11-13T17:06:20.264Z,11.10
2018-11-13T17:08:56.188Z,11.10
2018-11-13T17:11:24.393Z,11.10
2018-11-13T17:13:54.584Z,11.10
2018-11-13T17:16:23.249Z,11.10
2018-11-13T17:18:51.521Z,11.10
2018-11-13T17:32:26.826Z,11.00
2018-11-13T17:34:55.487Z,11.00
2018-11-13T17:37:23.673Z,10.90
2018-11-13T17:42:53.375Z,10.80
2018-11-13T17:48:53.076Z,10.70
2018-11-13T17:51:20.468Z,10.70
2018-11-13T17:53:47.911Z,10.60
2018-11-13T17:56:15.371Z,10.50
2018-11-13T17:58:42.715Z,10.50
2018-11-13T18:01:10.100Z,10.40
2018-11-13T18:03:37.447Z,10.30
2018-11-13T18:06:05.080Z,10.20
2018-11-13T18:08:32.513Z,10.10
2018-11-13T18:11:00.188Z,10.00
2018-11-13T18:13:27.669Z,9.90
2018-11-13T18:15:55.133Z,9.80
2018-11-13T18:18:22.543Z,9.80
2018-11-13T18:20:49.933Z,9.70
2018-11-13T18:23:17.402Z,9.60
2018-11-13T18:25:44.738Z,9.60
2018-11-13T18:28:12.130Z,9.50
2018-11-13T18:30:39.772Z,9.50
2018-11-13T18:33:07.772Z,9.40
2018-11-13T18:35:36.357Z,9.40
2018-11-13T18:38:05.261Z,9.30
2018-11-13T18:40:32.635Z,9.20
2018-11-13T18:43:00.621Z,9.20
2018-11-13T18:45:29.418Z,9.10
2018-11-13T18:47:56.899Z,9.10
2018-11-13T18:50:25.598Z,9.00
2018-11-13T18:52:52.952Z,9.00
2018-11-13T18:55:20.351Z,9.00
2018-11-13T18:57:47.809Z,8.90
2018-11-13T19:00:17.865Z,8.90
2018-11-13T19:02:45.306Z,8.90
2018-11-13T19:05:13.467Z,8.80
2018-11-13T19:07:41.140Z,8.80
2018-11-13T19:10:12.509Z,8.70
2018-11-13T19:12:40.580Z,8.70
2018-11-13T19:15:08.793Z,8.60
2018-11-13T19:17:36.286Z,8.70
2018-11-13T19:20:04.385Z,8.60
2018-11-13T19:22:31.631Z,8.60
2018-11-13T19:24:59.863Z,8.70
2018-11-13T19:27:27.262Z,8.70
2018-11-13T19:29:54.717Z,8.60
2018-11-13T19:32:22.175Z,8.70
2018-11-13T19:34:49.711Z,8.70
2018-11-13T19:37:18.418Z,8.60
2018-11-13T19:39:45.684Z,8.60
2018-11-13T19:42:13.184Z,8.60
2018-11-13T19:44:40.594Z,8.60
2018-11-13T19:47:08.086Z,8.60
2018-11-13T19:49:35.763Z,8.60
2018-11-13T19:52:03.064Z,8.60
2018-11-13T19:54:30.687Z,8.60
2018-11-13T19:56:58.194Z,8.50
2018-11-13T19:59:26.039Z,8.40
2018-11-13T20:01:53.522Z,8.30
2018-11-13T20:04:21.141Z,8.40
2018-11-13T20:06:48.435Z,8.40
2018-11-13T20:09:15.855Z,8.40
2018-11-13T20:11:43.244Z,8.30
2018-11-13T20:14:10.664Z,8.30
2018-11-13T20:16:38.164Z,8.40
2018-11-13T20:19:05.622Z,8.40
2018-11-13T20:21:33.094Z,8.40
2018-11-13T20:24:00.546Z,8.30
2018-11-13T20:26:27.956Z,8.30
2018-11-13T20:28:55.380Z,8.30
2018-11-13T20:31:22.818Z,8.20
2018-11-13T20:33:51.048Z,8.20
2018-11-13T20:36:19.221Z,8.20
2018-11-13T20:38:46.611Z,8.20
2018-11-13T20:41:13.959Z,8.30
2018-11-13T20:43:41.475Z,8.20
2018-11-13T20:46:08.838Z,8.30
2018-11-13T20:48:36.335Z,8.20
2018-11-13T20:51:03.772Z,8.20
2018-11-13T20:53:31.368Z,8.20
2018-11-13T20:55:59.034Z,8.30
2018-11-13T20:58:26.590Z,8.30
2018-11-13T21:00:54.148Z,8.30
2018-11-13T21:03:21.612Z,8.30
2018-11-13T21:05:49.397Z,8.30
2018-11-13T21:08:16.854Z,8.30
2018-11-13T21:10:44.306Z,8.20
2018-11-13T21:13:11.739Z,8.10
2018-11-13T21:15:39.354Z,8.30
2018-11-13T21:18:06.764Z,8.30
2018-11-13T21:20:34.732Z,8.30
2018-11-13T21:23:02.289Z,8.30
2018-11-13T21:25:29.721Z,8.20
2018-11-13T21:27:58.473Z,8.20
2018-11-13T21:30:26.151Z,8.10
2018-11-13T21:32:53.923Z,8.10
2018-11-13T21:35:21.276Z,8.10
2018-11-13T21:37:50.012Z,8.10
2018-11-13T21:40:18.597Z,8.10
2018-11-13T21:42:46.779Z,8.10
2018-11-13T21:45:14.834Z,8.10
2018-11-13T21:47:42.714Z,8.10
2018-11-13T21:50:10.883Z,8.10
2018-11-13T21:52:38.379Z,8.20
2018-11-13T21:55:06.922Z,8.20
2018-11-13T21:57:34.441Z,8.20
2018-11-13T22:00:01.815Z,8.10
2018-11-13T22:02:29.299Z,8.10
2018-11-13T22:04:56.722Z,8.20
2018-11-13T22:07:24.207Z,8.20
2018-11-13T22:09:51.576Z,8.20
2018-11-13T22:12:18.997Z,8.20
2018-11-13T22:14:46.446Z,8.20
2018-11-13T22:17:13.887Z,8.20
2018-11-13T22:19:41.323Z,8.20
2018-11-13T22:22:08.908Z,8.10
2018-11-13T22:24:36.259Z,8.10
2018-11-13T22:27:03.743Z,8.20
2018-11-13T22:29:31.042Z,8.20
2018-11-13T22:31:58.477Z,8.10
2018-11-13T22:34:26.007Z,8.20
2018-11-13T22:36:53.447Z,8.20
2018-11-13T22:39:20.964Z,8.20
2018-11-13T22:41:48.512Z,8.10
2018-11-13T22:44:15.954Z,8.10
2018-11-13T22:46:43.304Z,8.20
2018-11-13T22:49:10.656Z,8.10
2018-11-13T22:51:38.020Z,8.10
2018-11-13T22:54:05.471Z,8.10
2018-11-13T22:56:32.904Z,8.10
2018-11-13T22:59:00.278Z,8.10
2018-11-13T23:01:27.729Z,8.10
2018-11-13T23:03:55.186Z,8.10
2018-11-13T23:06:23.256Z,8.10
2018-11-13T23:08:50.620Z,8.20
2018-11-13T23:11:18.079Z,8.10
2018-11-13T23:13:45.431Z,8.10
2018-11-13T23:16:12.871Z,8.20
2018-11-13T23:18:40.272Z,8.20
2018-11-13T23:21:07.711Z,8.10
2018-11-13T23:23:35.190Z,8.10
2018-11-13T23:26:02.611Z,8.10
2018-11-13T23:28:29.967Z,8.10
2018-11-13T23:30:57.442Z,8.10
2018-11-13T23:33:24.916Z,8.10
2018-11-13T23:35:52.339Z,8.10
2018-11-13T23:38:19.782Z,8.20
2018-11-13T23:40:47.163Z,8.20
2018-11-13T23:43:14.502Z,8.30
2018-11-13T23:45:41.879Z,8.40
2018-11-13T23:48:09.338Z,8.50
2018-11-13T23:50:36.783Z,8.50
2018-11-13T23:53:04.385Z,8.60
2018-11-13T23:55:31.833Z,8.70
2018-11-13T23:57:59.307Z,8.80
